sensor_id;sensor_type;location;lat;lon;timestamp;pressure;altitude;pressure_sealevel;temperature;humidity
36502;BME280;25393;46.108;3.390;2022-08-04T00:01:56;97619.03;;;24.75;48.45
36502;BME280;25393;46.108;3.390;2022-08-04T00:04:42;97621.19;;;24.68;48.45
36502;BME280;25393;46.108;3.390;2022-08-04T00:10:21;97648.81;;;24.70;48.74
36502;BME280;25393;46.108;3.390;2022-08-04T00:12:56;97614.94;;;24.53;48.98
36502;BME280;25393;46.108;3.390;2022-08-04T00:15:41;97607.09;;;24.51;48.96
36502;BME280;25393;46.108;3.390;2022-08-04T00:18:20;97600.03;;;24.45;49.00
36502;BME280;25393;46.108;3.390;2022-08-04T00:21:05;97603.53;;;24.41;49.57
36502;BME280;25393;46.108;3.390;2022-08-04T00:24:00;97605.69;;;24.38;49.51
36502;BME280;25393;46.108;3.390;2022-08-04T00:27:50;97598.91;;;24.31;49.78
36502;BME280;25393;46.108;3.390;2022-08-04T00:31:08;97630.91;;;24.44;49.54
36502;BME280;25393;46.108;3.390;2022-08-04T00:35:02;97601.84;;;24.24;49.61
36502;BME280;25393;46.108;3.390;2022-08-04T00:38:39;97597.53;;;24.23;49.38
36502;BME280;25393;46.108;3.390;2022-08-04T00:52:43;97586.50;;;24.45;49.49
36502;BME280;25393;46.108;3.390;2022-08-04T01:01:54;97589.44;;;24.33;50.14
36502;BME280;25393;46.108;3.390;2022-08-04T01:05:39;97601.56;;;24.21;50.42
36502;BME280;25393;46.108;3.390;2022-08-04T01:14:58;97643.00;;;24.16;50.96
36502;BME280;25393;46.108;3.390;2022-08-04T01:18:15;97607.88;;;23.79;51.45
36502;BME280;25393;46.108;3.390;2022-08-04T01:24:58;97649.41;;;24.10;51.31
36502;BME280;25393;46.108;3.390;2022-08-04T01:30:28;97610.34;;;23.86;51.07
36502;BME280;25393;46.108;3.390;2022-08-04T01:33:13;97610.09;;;23.87;51.62
36502;BME280;25393;46.108;3.390;2022-08-04T01:35:57;97606.28;;;23.83;51.83
36502;BME280;25393;46.108;3.390;2022-08-04T01:38:46;97606.81;;;23.80;52.01
36502;BME280;25393;46.108;3.390;2022-08-04T01:41:23;97611.66;;;23.73;52.37
36502;BME280;25393;46.108;3.390;2022-08-04T01:43:59;97623.00;;;23.75;52.16
36502;BME280;25393;46.108;3.390;2022-08-04T01:46:35;97604.25;;;23.54;52.35
36502;BME280;25393;46.108;3.390;2022-08-04T01:49:15;97640.59;;;23.73;52.21
36502;BME280;25393;46.108;3.390;2022-08-04T01:52:24;97596.44;;;23.57;51.98
36502;BME280;25393;46.108;3.390;2022-08-04T01:55:32;97601.69;;;23.89;50.76
36502;BME280;25393;46.108;3.390;2022-08-04T01:58:23;97613.03;;;23.86;51.11
36502;BME280;25393;46.108;3.390;2022-08-04T02:01:08;97591.31;;;23.66;51.78
36502;BME280;25393;46.108;3.390;2022-08-04T02:03:42;97599.13;;;23.57;51.78
36502;BME280;25393;46.108;3.390;2022-08-04T02:06:48;97599.38;;;23.56;52.00
36502;BME280;25393;46.108;3.390;2022-08-04T02:10:03;97628.41;;;23.75;52.25
36502;BME280;25393;46.108;3.390;2022-08-04T02:18:02;97630.75;;;23.57;52.59
36502;BME280;25393;46.108;3.390;2022-08-04T02:20:39;97585.13;;;23.33;52.53
36502;BME280;25393;46.108;3.390;2022-08-04T02:23:35;97625.88;;;23.54;52.55
36502;BME280;25393;46.108;3.390;2022-08-04T02:26:06;97626.66;;;23.54;53.15
36502;BME280;25393;46.108;3.390;2022-08-04T02:29:06;97608.50;;;23.08;54.02
36502;BME280;25393;46.108;3.390;2022-08-04T02:34:27;97624.66;;;23.03;54.25
36502;BME280;25393;46.108;3.390;2022-08-04T02:37:12;97585.56;;;22.83;54.70
36502;BME280;25393;46.108;3.390;2022-08-04T02:42:15;97588.78;;;22.80;54.29
36502;BME280;25393;46.108;3.390;2022-08-04T02:44:57;97586.88;;;22.76;54.56
36502;BME280;25393;46.108;3.390;2022-08-04T02:47:26;97604.09;;;23.02;54.42
36502;BME280;25393;46.108;3.390;2022-08-04T02:50:17;97629.31;;;23.12;54.76
36502;BME280;25393;46.108;3.390;2022-08-04T02:52:57;97606.09;;;23.11;54.21
36502;BME280;25393;46.108;3.390;2022-08-04T02:55:43;97583.91;;;23.09;53.58
36502;BME280;25393;46.108;3.390;2022-08-04T02:58:22;97595.47;;;23.05;54.16
36502;BME280;25393;46.108;3.390;2022-08-04T03:00:52;97594.56;;;22.94;54.24
36502;BME280;25393;46.108;3.390;2022-08-04T03:06:27;97598.59;;;22.86;54.95
36502;BME280;25393;46.108;3.390;2022-08-04T03:09:23;97594.13;;;22.70;55.47
36502;BME280;25393;46.108;3.390;2022-08-04T03:14:45;97589.47;;;22.66;55.40
36502;BME280;25393;46.108;3.390;2022-08-04T03:17:26;97625.09;;;22.89;55.53
36502;BME280;25393;46.108;3.390;2022-08-04T03:22:58;97627.56;;;22.96;55.63
36502;BME280;25393;46.108;3.390;2022-08-04T03:26:01;97590.66;;;23.12;53.71
36502;BME280;25393;46.108;3.390;2022-08-04T03:34:27;97579.56;;;22.76;55.02
36502;BME280;25393;46.108;3.390;2022-08-04T03:55:15;97636.75;;;22.95;55.44
36502;BME280;25393;46.108;3.390;2022-08-04T04:22:21;97606.94;;;21.66;62.05
36502;BME280;25393;46.108;3.390;2022-08-04T04:27:39;97605.47;;;21.97;59.33
36502;BME280;25393;46.108;3.390;2022-08-04T04:30:16;97620.44;;;22.31;58.34
36502;BME280;25393;46.108;3.390;2022-08-04T04:33:06;97638.78;;;22.56;57.38
36502;BME280;25393;46.108;3.390;2022-08-04T04:38:56;97642.75;;;22.49;57.77
36502;BME280;25393;46.108;3.390;2022-08-04T04:42:06;97616.25;;;22.19;57.96
36502;BME280;25393;46.108;3.390;2022-08-04T04:50:55;97649.81;;;22.28;59.36
36502;BME280;25393;46.108;3.390;2022-08-04T04:56:50;97648.75;;;22.56;57.63
36502;BME280;25393;46.108;3.390;2022-08-04T04:59:24;97648.28;;;22.59;57.07
36502;BME280;25393;46.108;3.390;2022-08-04T05:14:31;97656.84;;;23.04;54.29
36502;BME280;25393;46.108;3.390;2022-08-04T05:17:24;97652.34;;;23.20;53.25
36502;BME280;25393;46.108;3.390;2022-08-04T05:20:06;97661.03;;;23.22;52.97
36502;BME280;25393;46.108;3.390;2022-08-04T05:22:54;97654.75;;;23.11;53.38
36502;BME280;25393;46.108;3.390;2022-08-04T05:28:02;97662.72;;;23.28;52.20
36502;BME280;25393;46.108;3.390;2022-08-04T05:30:33;97668.63;;;23.25;52.85
36502;BME280;25393;46.108;3.390;2022-08-04T05:33:08;97667.00;;;23.24;53.48
36502;BME280;25393;46.108;3.390;2022-08-04T05:35:43;97665.13;;;23.24;52.78
36502;BME280;25393;46.108;3.390;2022-08-04T05:38:34;97670.69;;;23.13;52.76
36502;BME280;25393;46.108;3.390;2022-08-04T05:41:07;97662.25;;;23.04;53.23
36502;BME280;25393;46.108;3.390;2022-08-04T05:43:37;97647.56;;;22.95;53.20
36502;BME280;25393;46.108;3.390;2022-08-04T05:46:08;97666.19;;;23.23;53.15
36502;BME280;25393;46.108;3.390;2022-08-04T05:48:39;97665.81;;;23.42;52.75
36502;BME280;25393;46.108;3.390;2022-08-04T05:51:09;97674.66;;;23.69;51.84
36502;BME280;25393;46.108;3.390;2022-08-04T05:53:37;97667.75;;;23.88;51.39
36502;BME280;25393;46.108;3.390;2022-08-04T05:56:05;97671.03;;;23.95;51.36
36502;BME280;25393;46.108;3.390;2022-08-04T05:58:33;97671.66;;;24.12;50.73
36502;BME280;25393;46.108;3.390;2022-08-04T06:01:01;97664.41;;;24.23;50.50
36502;BME280;25393;46.108;3.390;2022-08-04T06:03:30;97668.03;;;24.49;49.44
36502;BME280;25393;46.108;3.390;2022-08-04T06:05:58;97671.28;;;24.61;49.14
36502;BME280;25393;46.108;3.390;2022-08-04T06:08:25;97662.38;;;24.70;49.20
36502;BME280;25393;46.108;3.390;2022-08-04T06:10:52;97649.66;;;24.76;48.85
36502;BME280;25393;46.108;3.390;2022-08-04T06:13:28;97665.44;;;24.94;48.88
36502;BME280;25393;46.108;3.390;2022-08-04T06:16:20;97671.94;;;25.13;48.52
36502;BME280;25393;46.108;3.390;2022-08-04T06:19:00;97678.19;;;25.34;47.47
36502;BME280;25393;46.108;3.390;2022-08-04T06:21:53;97671.69;;;25.40;47.65
36502;BME280;25393;46.108;3.390;2022-08-04T06:24:23;97680.34;;;25.42;48.10
36502;BME280;25393;46.108;3.390;2022-08-04T06:26:53;97680.38;;;25.52;48.35
36502;BME280;25393;46.108;3.390;2022-08-04T06:29:21;97685.78;;;25.67;47.19
36502;BME280;25393;46.108;3.390;2022-08-04T06:32:17;97674.13;;;25.62;47.67
36502;BME280;25393;46.108;3.390;2022-08-04T06:35:04;97677.38;;;25.59;47.89
36502;BME280;25393;46.108;3.390;2022-08-04T06:37:35;97676.56;;;25.58;48.47
36502;BME280;25393;46.108;3.390;2022-08-04T06:40:11;97687.16;;;25.65;48.38
36502;BME280;25393;46.108;3.390;2022-08-04T06:43:03;97677.88;;;25.91;47.11
36502;BME280;25393;46.108;3.390;2022-08-04T06:45:33;97676.19;;;26.10;46.45
36502;BME280;25393;46.108;3.390;2022-08-04T06:48:04;97672.34;;;26.21;45.69
36502;BME280;25393;46.108;3.390;2022-08-04T06:50:34;97681.53;;;26.36;45.39
36502;BME280;25393;46.108;3.390;2022-08-04T06:53:21;97685.50;;;26.63;44.61
36502;BME280;25393;46.108;3.390;2022-08-04T06:55:50;97675.06;;;26.86;44.25
36502;BME280;25393;46.108;3.390;2022-08-04T06:58:19;97672.97;;;27.11;43.54
36502;BME280;25393;46.108;3.390;2022-08-04T07:00:49;97672.53;;;27.33;43.54
36502;BME280;25393;46.108;3.390;2022-08-04T07:03:18;97684.56;;;27.61;43.45
36502;BME280;25393;46.108;3.390;2022-08-04T07:05:48;97681.25;;;27.69;43.63
36502;BME280;25393;46.108;3.390;2022-08-04T07:08:16;97677.84;;;27.82;43.55
36502;BME280;25393;46.108;3.390;2022-08-04T07:10:44;97688.19;;;28.09;43.47
36502;BME280;25393;46.108;3.390;2022-08-04T07:13:11;97686.09;;;28.24;43.54
36502;BME280;25393;46.108;3.390;2022-08-04T07:15:43;97686.16;;;28.62;43.74
36502;BME280;25393;46.108;3.390;2022-08-04T07:18:11;97678.09;;;28.94;42.43
36502;BME280;25393;46.108;3.390;2022-08-04T07:20:42;97688.84;;;29.42;42.06
36502;BME280;25393;46.108;3.390;2022-08-04T07:23:09;97679.72;;;29.65;40.55
36502;BME280;25393;46.108;3.390;2022-08-04T07:25:39;97690.75;;;29.73;40.69
36502;BME280;25393;46.108;3.390;2022-08-04T07:28:28;97684.78;;;29.71;40.13
36502;BME280;25393;46.108;3.390;2022-08-04T07:30:56;97691.25;;;29.94;39.49
36502;BME280;25393;46.108;3.390;2022-08-04T07:33:23;97675.06;;;30.25;38.00
36502;BME280;25393;46.108;3.390;2022-08-04T07:35:55;97676.28;;;30.46;37.40
36502;BME280;25393;46.108;3.390;2022-08-04T07:38:33;97683.84;;;30.63;37.37
36502;BME280;25393;46.108;3.390;2022-08-04T07:41:04;97677.31;;;30.86;35.82
36502;BME280;25393;46.108;3.390;2022-08-04T07:43:52;97676.31;;;31.18;35.48
36502;BME280;25393;46.108;3.390;2022-08-04T07:46:20;97680.56;;;31.46;35.67
36502;BME280;25393;46.108;3.390;2022-08-04T07:48:47;97679.63;;;31.73;35.09
36502;BME280;25393;46.108;3.390;2022-08-04T07:51:15;97668.59;;;31.87;34.88
36502;BME280;25393;46.108;3.390;2022-08-04T07:53:43;97670.63;;;31.73;35.35
36502;BME280;25393;46.108;3.390;2022-08-04T07:56:21;97669.94;;;31.98;34.24
36502;BME280;25393;46.108;3.390;2022-08-04T07:58:47;97677.03;;;32.30;32.72
36502;BME280;25393;46.108;3.390;2022-08-04T08:01:15;97673.13;;;32.31;33.10
36502;BME280;25393;46.108;3.390;2022-08-04T08:03:42;97671.19;;;31.92;32.63
36502;BME280;25393;46.108;3.390;2022-08-04T08:06:09;97687.94;;;31.90;33.14
36502;BME280;25393;46.108;3.390;2022-08-04T08:08:57;97687.22;;;31.76;33.81
36502;BME280;25393;46.108;3.390;2022-08-04T08:11:47;97690.09;;;31.71;33.66
36502;BME280;25393;46.108;3.390;2022-08-04T08:14:34;97673.13;;;32.22;33.87
36502;BME280;25393;46.108;3.390;2022-08-04T08:17:02;97681.16;;;32.66;31.79
36502;BME280;25393;46.108;3.390;2022-08-04T08:19:30;97678.97;;;33.03;32.21
36502;BME280;25393;46.108;3.390;2022-08-04T08:21:58;97663.94;;;33.26;32.24
36502;BME280;25393;46.108;3.390;2022-08-04T08:24:32;97678.66;;;33.39;31.96
36502;BME280;25393;46.108;3.390;2022-08-04T08:27:01;97680.56;;;33.47;32.29
36502;BME280;25393;46.108;3.390;2022-08-04T08:29:32;97677.47;;;33.57;30.92
36502;BME280;25393;46.108;3.390;2022-08-04T08:32:00;97679.13;;;33.67;31.25
36502;BME280;25393;46.108;3.390;2022-08-04T08:34:34;97682.06;;;34.08;30.80
36502;BME280;25393;46.108;3.390;2022-08-04T08:37:14;97681.41;;;34.49;30.51
36502;BME280;25393;46.108;3.390;2022-08-04T08:42:50;97684.31;;;34.15;30.17
36502;BME280;25393;46.108;3.390;2022-08-04T08:48:58;97678.97;;;33.29;31.23
36502;BME280;25393;46.108;3.390;2022-08-04T09:00:18;97679.13;;;33.41;32.07
36502;BME280;25393;46.108;3.390;2022-08-04T09:11:38;97678.81;;;33.42;30.43
36502;BME280;25393;46.108;3.390;2022-08-04T09:14:22;97684.63;;;34.22;30.76
36502;BME280;25393;46.108;3.390;2022-08-04T09:16:54;97681.00;;;35.09;29.36
36502;BME280;25393;46.108;3.390;2022-08-04T09:19:26;97671.47;;;35.81;26.24
36502;BME280;25393;46.108;3.390;2022-08-04T09:24:53;97684.44;;;36.37;27.00
36502;BME280;25393;46.108;3.390;2022-08-04T09:27:53;97675.47;;;36.52;26.21
36502;BME280;25393;46.108;3.390;2022-08-04T09:30:28;97665.59;;;36.64;26.07
36502;BME280;25393;46.108;3.390;2022-08-04T09:36:09;97680.03;;;37.92;25.67
36502;BME280;25393;46.108;3.390;2022-08-04T09:41:45;97670.31;;;39.50;23.91
36502;BME280;25393;46.108;3.390;2022-08-04T09:49:56;97672.91;;;40.99;20.25
36502;BME280;25393;46.108;3.390;2022-08-04T09:57:50;97679.31;;;40.08;21.80
36502;BME280;25393;46.108;3.390;2022-08-04T10:00:19;97680.63;;;38.80;23.23
36502;BME280;25393;46.108;3.390;2022-08-04T10:03:12;97682.09;;;37.95;24.00
36502;BME280;25393;46.108;3.390;2022-08-04T10:06:04;97677.31;;;37.80;25.14
36502;BME280;25393;46.108;3.390;2022-08-04T10:11:44;97669.69;;;37.62;25.89
36502;BME280;25393;46.108;3.390;2022-08-04T10:26:03;97655.59;;;39.27;24.17
36502;BME280;25393;46.108;3.390;2022-08-04T10:28:48;97658.91;;;38.97;24.35
36502;BME280;25393;46.108;3.390;2022-08-04T10:31:27;97673.47;;;38.79;24.88
36502;BME280;25393;46.108;3.390;2022-08-04T10:34:07;97673.09;;;38.30;24.49
36502;BME280;25393;46.108;3.390;2022-08-04T10:36:43;97663.59;;;37.68;25.33
36502;BME280;25393;46.108;3.390;2022-08-04T10:39:15;97660.97;;;37.32;25.63
36502;BME280;25393;46.108;3.390;2022-08-04T10:42:24;97676.91;;;37.11;26.63
36502;BME280;25393;46.108;3.390;2022-08-04T10:45:13;97665.91;;;36.86;27.01
36502;BME280;25393;46.108;3.390;2022-08-04T10:48:17;97654.44;;;36.72;26.63
36502;BME280;25393;46.108;3.390;2022-08-04T10:50:40;97655.63;;;36.59;27.30
36502;BME280;25393;46.108;3.390;2022-08-04T10:53:17;97654.22;;;36.41;28.06
36502;BME280;25393;46.108;3.390;2022-08-04T10:56:14;97665.34;;;36.32;27.81
36502;BME280;25393;46.108;3.390;2022-08-04T10:59:02;97644.09;;;36.09;28.22
36502;BME280;25393;46.108;3.390;2022-08-04T11:01:37;97664.44;;;36.16;28.89
36502;BME280;25393;46.108;3.390;2022-08-04T11:04:43;97643.13;;;36.04;29.20
36502;BME280;25393;46.108;3.390;2022-08-04T11:07:12;97652.69;;;35.95;27.81
36502;BME280;25393;46.108;3.390;2022-08-04T11:09:42;97662.59;;;36.08;27.70
36502;BME280;25393;46.108;3.390;2022-08-04T11:12:15;97656.41;;;36.23;26.76
36502;BME280;25393;46.108;3.390;2022-08-04T11:14:52;97646.63;;;36.26;27.05
36502;BME280;25393;46.108;3.390;2022-08-04T11:17:25;97631.09;;;36.21;26.76
36502;BME280;25393;46.108;3.390;2022-08-04T11:25:31;97649.94;;;38.69;26.30
36502;BME280;25393;46.108;3.390;2022-08-04T11:28:13;97635.25;;;40.26;23.28
36502;BME280;25393;46.108;3.390;2022-08-04T11:31:24;97635.63;;;41.70;21.18
36502;BME280;25393;46.108;3.390;2022-08-04T11:34:04;97626.72;;;42.96;20.36
36502;BME280;25393;46.108;3.390;2022-08-04T11:36:52;97634.16;;;43.54;18.47
36502;BME280;25393;46.108;3.390;2022-08-04T11:39:26;97629.53;;;42.96;19.12
36502;BME280;25393;46.108;3.390;2022-08-04T11:42:27;97627.34;;;42.65;20.78
36502;BME280;25393;46.108;3.390;2022-08-04T11:50:06;97620.41;;;41.57;20.56
36502;BME280;25393;46.108;3.390;2022-08-04T11:52:37;97623.66;;;42.50;21.07
36502;BME280;25393;46.108;3.390;2022-08-04T11:55:08;97630.81;;;43.13;18.89
36502;BME280;25393;46.108;3.390;2022-08-04T11:57:37;97622.47;;;41.67;19.40
36502;BME280;25393;46.108;3.390;2022-08-04T12:00:10;97597.63;;;42.25;18.82
36502;BME280;25393;46.108;3.390;2022-08-04T12:05:26;97612.06;;;43.06;20.74
36502;BME280;25393;46.108;3.390;2022-08-04T12:18:37;97585.91;;;42.56;18.17
36502;BME280;25393;46.108;3.390;2022-08-04T12:23:56;97572.06;;;41.68;18.96
36502;BME280;25393;46.108;3.390;2022-08-04T12:26:28;97590.28;;;40.96;19.89
36502;BME280;25393;46.108;3.390;2022-08-04T12:29:00;97586.44;;;40.74;20.25
36502;BME280;25393;46.108;3.390;2022-08-04T12:31:55;97598.09;;;41.50;19.13
36502;BME280;25393;46.108;3.390;2022-08-04T12:34:46;97587.94;;;41.68;19.29
36502;BME280;25393;46.108;3.390;2022-08-04T12:37:37;97590.63;;;41.20;19.83
36502;BME280;25393;46.108;3.390;2022-08-04T12:40:14;97587.16;;;41.30;19.53
36502;BME280;25393;46.108;3.390;2022-08-04T12:43:02;97590.63;;;41.98;19.71
36502;BME280;25393;46.108;3.390;2022-08-04T12:45:32;97581.09;;;43.36;18.48
36502;BME280;25393;46.108;3.390;2022-08-04T12:48:03;97574.44;;;44.43;17.15
36502;BME280;25393;46.108;3.390;2022-08-04T12:50:32;97582.22;;;45.12;16.90
36502;BME280;25393;46.108;3.390;2022-08-04T12:52:59;97579.19;;;45.58;17.01
36502;BME280;25393;46.108;3.390;2022-08-04T12:55:31;97563.06;;;45.80;16.07
36502;BME280;25393;46.108;3.390;2022-08-04T12:58:11;97567.88;;;46.27;15.87
36502;BME280;25393;46.108;3.390;2022-08-04T13:00:41;97570.53;;;46.82;16.06
36502;BME280;25393;46.108;3.390;2022-08-04T13:03:13;97578.38;;;47.28;15.73
36502;BME280;25393;46.108;3.390;2022-08-04T13:05:42;97576.66;;;47.34;15.52
36502;BME280;25393;46.108;3.390;2022-08-04T13:08:11;97561.69;;;46.84;15.37
36502;BME280;25393;46.108;3.390;2022-08-04T13:10:40;97564.06;;;44.37;16.84
36502;BME280;25393;46.108;3.390;2022-08-04T13:13:19;97549.19;;;41.85;18.94
36502;BME280;25393;46.108;3.390;2022-08-04T13:16:09;97563.03;;;42.26;18.87
36502;BME280;25393;46.108;3.390;2022-08-04T13:18:46;97563.88;;;41.82;19.20
36502;BME280;25393;46.108;3.390;2022-08-04T13:23:55;97565.03;;;39.99;20.77
36502;BME280;25393;46.108;3.390;2022-08-04T13:26:56;97544.22;;;39.63;21.11
36502;BME280;25393;46.108;3.390;2022-08-04T13:29:43;97560.00;;;40.31;20.14
36502;BME280;25393;46.108;3.390;2022-08-04T13:32:27;97546.50;;;40.29;20.43
36502;BME280;25393;46.108;3.390;2022-08-04T13:34:56;97544.28;;;40.68;20.12
36502;BME280;25393;46.108;3.390;2022-08-04T13:37:30;97535.75;;;41.51;20.28
36502;BME280;25393;46.108;3.390;2022-08-04T13:39:58;97545.31;;;40.86;19.98
36502;BME280;25393;46.108;3.390;2022-08-04T13:42:26;97520.22;;;41.46;20.32
36502;BME280;25393;46.108;3.390;2022-08-04T13:44:56;97531.38;;;42.55;19.17
36502;BME280;25393;46.108;3.390;2022-08-04T13:47:33;97538.09;;;43.37;18.97
36502;BME280;25393;46.108;3.390;2022-08-04T13:50:19;97529.38;;;44.20;18.47
36502;BME280;25393;46.108;3.390;2022-08-04T13:52:51;97530.41;;;44.86;17.27
36502;BME280;25393;46.108;3.390;2022-08-04T13:55:26;97526.38;;;44.98;17.22
36502;BME280;25393;46.108;3.390;2022-08-04T13:58:20;97526.47;;;44.69;16.77
36502;BME280;25393;46.108;3.390;2022-08-04T14:01:05;97526.88;;;44.71;17.52
36502;BME280;25393;46.108;3.390;2022-08-04T14:03:36;97511.66;;;44.83;16.71
36502;BME280;25393;46.108;3.390;2022-08-04T14:09:16;97515.69;;;45.99;16.27
36502;BME280;25393;46.108;3.390;2022-08-04T14:11:53;97512.09;;;44.78;15.97
36502;BME280;25393;46.108;3.390;2022-08-04T14:14:49;97503.81;;;43.19;18.63
36502;BME280;25393;46.108;3.390;2022-08-04T14:17:24;97507.28;;;42.88;17.84
36502;BME280;25393;46.108;3.390;2022-08-04T14:19:58;97501.47;;;43.60;18.51
36502;BME280;25393;46.108;3.390;2022-08-04T14:27:51;97507.88;;;43.89;17.82
36502;BME280;25393;46.108;3.390;2022-08-04T14:33:09;97490.63;;;44.54;16.75
36502;BME280;25393;46.108;3.390;2022-08-04T14:35:58;97497.06;;;43.34;17.33
36502;BME280;25393;46.108;3.390;2022-08-04T14:38:43;97499.59;;;42.60;18.35
36502;BME280;25393;46.108;3.390;2022-08-04T14:41:11;97485.53;;;43.50;17.92
36502;BME280;25393;46.108;3.390;2022-08-04T14:46:12;97482.06;;;45.00;17.16
36502;BME280;25393;46.108;3.390;2022-08-04T14:51:33;97474.81;;;42.37;18.00
36502;BME280;25393;46.108;3.390;2022-08-04T14:54:03;97475.16;;;40.30;19.63
36502;BME280;25393;46.108;3.390;2022-08-04T14:56:34;97487.75;;;40.24;20.20
36502;BME280;25393;46.108;3.390;2022-08-04T14:59:13;97484.00;;;40.99;19.78
36502;BME280;25393;46.108;3.390;2022-08-04T15:01:40;97466.41;;;41.28;18.89
36502;BME280;25393;46.108;3.390;2022-08-04T15:04:09;97477.47;;;40.87;19.12
36502;BME280;25393;46.108;3.390;2022-08-04T15:06:36;97481.47;;;40.27;20.12
36502;BME280;25393;46.108;3.390;2022-08-04T15:09:06;97460.44;;;39.28;20.33
36502;BME280;25393;46.108;3.390;2022-08-04T15:11:35;97457.59;;;39.24;21.78
36502;BME280;25393;46.108;3.390;2022-08-04T15:14:08;97477.66;;;38.22;22.55
36502;BME280;25393;46.108;3.390;2022-08-04T15:16:55;97475.69;;;37.25;23.22
36502;BME280;25393;46.108;3.390;2022-08-04T15:19:23;97461.91;;;36.97;23.73
36502;BME280;25393;46.108;3.390;2022-08-04T15:21:53;97473.38;;;37.89;22.98
36502;BME280;25393;46.108;3.390;2022-08-04T15:24:23;97461.84;;;38.57;21.86
36502;BME280;25393;46.108;3.390;2022-08-04T15:26:55;97473.84;;;38.65;22.37
36502;BME280;25393;46.108;3.390;2022-08-04T15:29:38;97459.38;;;37.82;23.06
36502;BME280;25393;46.108;3.390;2022-08-04T15:32:28;97459.50;;;36.95;23.94
36502;BME280;25393;46.108;3.390;2022-08-04T15:35:02;97457.50;;;36.13;24.32
36502;BME280;25393;46.108;3.390;2022-08-04T15:45:23;97473.28;;;36.95;24.87
36502;BME280;25393;46.108;3.390;2022-08-04T15:53:25;97473.38;;;36.99;24.42
36502;BME280;25393;46.108;3.390;2022-08-04T15:58:52;97468.19;;;37.10;24.53
36502;BME280;25393;46.108;3.390;2022-08-04T16:01:22;97458.94;;;37.18;24.69
36502;BME280;25393;46.108;3.390;2022-08-04T16:03:53;97450.03;;;37.24;25.07
36502;BME280;25393;46.108;3.390;2022-08-04T16:09:00;97446.09;;;37.41;25.12
36502;BME280;25393;46.108;3.390;2022-08-04T16:19:06;97462.78;;;37.29;24.82
36502;BME280;25393;46.108;3.390;2022-08-04T16:21:45;97460.78;;;37.14;25.35
36502;BME280;25393;46.108;3.390;2022-08-04T16:26:56;97461.25;;;36.72;26.22
36502;BME280;25393;46.108;3.390;2022-08-04T16:29:30;97470.72;;;36.47;26.24
36502;BME280;25393;46.108;3.390;2022-08-04T16:34:32;97473.16;;;35.72;26.68
36502;BME280;25393;46.108;3.390;2022-08-04T16:37:16;97461.69;;;35.01;26.56
36502;BME280;25393;46.108;3.390;2022-08-04T16:39:44;97474.03;;;34.41;27.42
36502;BME280;25393;46.108;3.390;2022-08-04T16:45:08;97489.19;;;33.39;29.19
36502;BME280;25393;46.108;3.390;2022-08-04T16:50:15;97486.25;;;32.80;30.60
36502;BME280;25393;46.108;3.390;2022-08-04T16:52:46;97485.44;;;32.54;31.75
36502;BME280;25393;46.108;3.390;2022-08-04T16:55:14;97480.91;;;32.06;33.36
36502;BME280;25393;46.108;3.390;2022-08-04T16:57:45;97490.00;;;31.85;32.83
36502;BME280;25393;46.108;3.390;2022-08-04T17:00:12;97535.75;;;31.76;33.69
36502;BME280;25393;46.108;3.390;2022-08-04T17:02:40;97533.78;;;31.59;34.95
36502;BME280;25393;46.108;3.390;2022-08-04T17:05:24;97581.88;;;31.20;39.47
36502;BME280;25393;46.108;3.390;2022-08-04T17:08:05;97604.06;;;29.19;51.09
36502;BME280;25393;46.108;3.390;2022-08-04T17:10:52;97615.13;;;27.35;55.40
36502;BME280;25393;46.108;3.390;2022-08-04T17:13:30;97596.25;;;26.80;63.55
36502;BME280;25393;46.108;3.390;2022-08-04T17:16:18;97586.31;;;26.61;65.57
36502;BME280;25393;46.108;3.390;2022-08-04T17:18:49;97600.94;;;26.70;68.67
36502;BME280;25393;46.108;3.390;2022-08-04T17:21:21;97610.91;;;26.41;70.97
36502;BME280;25393;46.108;3.390;2022-08-04T17:23:56;97587.63;;;26.24;72.53
36502;BME280;25393;46.108;3.390;2022-08-04T17:26:44;97568.63;;;26.24;75.14
36502;BME280;25393;46.108;3.390;2022-08-04T17:29:22;97545.06;;;26.54;81.05
36502;BME280;25393;46.108;3.390;2022-08-04T17:32:16;97557.72;;;27.07;80.98
36502;BME280;25393;46.108;3.390;2022-08-04T17:34:49;97561.59;;;27.30;77.73
36502;BME280;25393;46.108;3.390;2022-08-04T17:37:17;97554.22;;;27.30;73.78
36502;BME280;25393;46.108;3.390;2022-08-04T17:40:14;97543.34;;;27.02;74.66
36502;BME280;25393;46.108;3.390;2022-08-04T17:42:44;97567.94;;;26.48;80.06
36502;BME280;25393;46.108;3.390;2022-08-04T17:45:31;97542.03;;;26.11;80.53
36502;BME280;25393;46.108;3.390;2022-08-04T17:48:19;97552.47;;;25.89;82.32
36502;BME280;25393;46.108;3.390;2022-08-04T17:50:50;97553.06;;;25.76;80.87
36502;BME280;25393;46.108;3.390;2022-08-04T17:53:30;97558.19;;;25.88;83.60
36502;BME280;25393;46.108;3.390;2022-08-04T17:56:33;97568.13;;;26.07;79.60
36502;BME280;25393;46.108;3.390;2022-08-04T18:02:09;97573.03;;;26.00;78.53
36502;BME280;25393;46.108;3.390;2022-08-04T18:04:49;97573.44;;;25.73;75.46
36502;BME280;25393;46.108;3.390;2022-08-04T18:07:40;97576.59;;;25.96;74.25
36502;BME280;25393;46.108;3.390;2022-08-04T18:10:53;97577.19;;;25.88;74.47
36502;BME280;25393;46.108;3.390;2022-08-04T18:13:40;97559.19;;;26.07;74.17
36502;BME280;25393;46.108;3.390;2022-08-04T18:16:08;97578.97;;;26.12;74.05
36502;BME280;25393;46.108;3.390;2022-08-04T18:19:09;97578.97;;;26.12;74.06
36502;BME280;25393;46.108;3.390;2022-08-04T18:21:36;97553.50;;;26.03;73.14
36502;BME280;25393;46.108;3.390;2022-08-04T18:24:24;97583.56;;;26.22;72.30
36502;BME280;25393;46.108;3.390;2022-08-04T18:27:11;97587.31;;;26.31;71.20
36502;BME280;25393;46.108;3.390;2022-08-04T18:29:40;97577.56;;;26.25;70.60
36502;BME280;25393;46.108;3.390;2022-08-04T18:32:27;97550.53;;;26.00;69.66
36502;BME280;25393;46.108;3.390;2022-08-04T18:34:59;97580.03;;;26.11;69.62
36502;BME280;25393;46.108;3.390;2022-08-04T18:37:33;97574.66;;;26.06;71.30
36502;BME280;25393;46.108;3.390;2022-08-04T18:40:20;97578.94;;;26.22;73.33